Time;durP1;ratioP1;P1;durP2;ratioP2;P2;SDS_P1;SDS_P2;PMS_P1;PMS_P2;Temp;Humidity;BMP_temperature;BMP_pressure;BME280_temperature;BME280_humidity;BME280_pressure;Samples;Min_cycle;Max_cycle;Signal;HPM_P1;HPM_P2
2021/11/02 00:00:29;;;;;;;58.25;2.50;;;6.30;54.70;;;;;;5116328;28;20259;-65
2021/11/02 00:02:56;;;;;;;58.13;2.80;;;6.40;55.50;;;;;;5116705;28;20239;-65
2021/11/02 00:05:23;;;;;;;58.58;2.72;;;6.40;56.30;;;;;;5115833;28;20210;-65
2021/11/02 00:07:50;;;;;;;58.55;2.75;;;6.40;56.30;;;;;;5116337;28;20311;-65
2021/11/02 00:10:17;;;;;;;58.38;2.80;;;6.40;56.80;;;;;;5115121;28;20225;-65
2021/11/02 00:12:45;;;;;;;58.35;2.78;;;6.50;57.40;;;;;;5115089;28;20294;-65
2021/11/02 00:15:12;;;;;;;58.47;3.20;;;6.50;58.10;;;;;;5114563;28;20724;-65
2021/11/02 00:17:41;;;;;;;58.90;3.40;;;6.50;58.60;;;;;;5114335;28;20602;-65
2021/11/02 00:20:14;;;;;;;58.47;2.80;;;6.50;59.00;;;;;;5114428;28;20223;-66
2021/11/02 00:22:42;;;;;;;58.47;2.75;;;6.50;59.80;;;;;;5114450;28;20295;-65
2021/11/02 00:25:11;;;;;;;58.70;3.42;;;6.60;60.60;;;;;;5114328;28;20302;-66
2021/11/02 00:27:39;;;;;;;59.00;3.40;;;6.60;60.80;;;;;;5114039;28;20227;-65
2021/11/02 00:30:11;;;;;;;58.78;3.13;;;6.60;61.20;;;;;;5114296;28;20699;-66
2021/11/02 00:32:38;;;;;;;58.75;3.65;;;6.60;61.60;;;;;;5114758;28;20204;-66
2021/11/02 00:35:06;;;;;;;58.70;3.35;;;6.70;61.90;;;;;;5113983;28;20656;-65
2021/11/02 00:37:33;;;;;;;58.38;2.90;;;6.70;62.20;;;;;;5114129;28;20286;-66
2021/11/02 00:40:01;;;;;;;58.38;2.80;;;6.70;62.60;;;;;;5114243;28;20668;-66
2021/11/02 00:42:33;;;;;;;58.35;2.90;;;6.70;62.90;;;;;;5113954;28;20199;-66
2021/11/02 00:45:03;;;;;;;58.53;2.78;;;6.70;63.20;;;;;;5114010;28;20203;-66
2021/11/02 00:47:32;;;;;;;58.50;3.00;;;6.80;63.80;;;;;;5113531;28;20222;-66
2021/11/02 00:50:00;;;;;;;58.38;3.00;;;6.80;63.90;;;;;;5113708;28;20223;-65
2021/11/02 00:52:28;;;;;;;58.28;2.80;;;6.80;64.30;;;;;;5114062;28;20217;-66
2021/11/02 00:54:55;;;;;;;58.45;2.78;;;6.90;64.80;;;;;;5113952;28;20630;-65
2021/11/02 00:57:22;;;;;;;58.47;2.75;;;6.90;65.20;;;;;;5113659;28;20206;-66
2021/11/02 00:59:49;;;;;;;58.65;3.20;;;6.90;65.90;;;;;;5113676;28;20263;-66
2021/11/02 01:02:18;;;;;;;58.40;2.90;;;7.00;66.00;;;;;;5113680;28;20236;-66
2021/11/02 01:04:47;;;;;;;58.50;3.70;;;7.00;66.50;;;;;;5113494;28;20214;-66
2021/11/02 01:07:14;;;;;;;58.45;2.85;;;7.00;66.70;;;;;;5113123;28;20227;-65
2021/11/02 01:09:40;;;;;;;58.58;2.90;;;7.10;67.10;;;;;;5113527;28;20224;-66
2021/11/02 01:12:08;;;;;;;58.35;2.90;;;7.10;67.50;;;;;;5113453;28;20231;-66
2021/11/02 01:14:35;;;;;;;58.17;3.00;;;7.10;67.70;;;;;;5113296;28;20663;-66
2021/11/02 01:17:02;;;;;;;60.50;3.55;;;7.10;68.10;;;;;;5113034;28;20473;-66
2021/11/02 01:19:29;;;;;;;58.40;2.80;;;7.10;68.20;;;;;;5113449;28;20237;-66
2021/11/02 01:21:57;;;;;;;59.10;3.10;;;7.20;68.60;;;;;;5113330;28;20286;-65
2021/11/02 01:24:25;;;;;;;58.38;2.83;;;7.20;68.80;;;;;;5113317;28;20534;-65
2021/11/02 01:26:51;;;;;;;58.42;2.72;;;7.20;69.00;;;;;;5112594;28;20223;-66
2021/11/02 01:29:18;;;;;;;58.45;2.80;;;7.20;69.60;;;;;;5112946;28;20708;-66
2021/11/02 01:31:46;;;;;;;58.60;2.85;;;7.20;69.70;;;;;;5113401;28;20200;-65
2021/11/02 01:34:13;;;;;;;58.30;2.80;;;7.20;69.80;;;;;;5113189;28;20208;-65
2021/11/02 01:36:41;;;;;;;58.38;2.60;;;7.30;70.30;;;;;;5112065;28;20200;-66
2021/11/02 01:39:09;;;;;;;58.47;3.00;;;7.30;70.40;;;;;;5113002;28;20212;-66
2021/11/02 01:41:37;;;;;;;58.78;2.95;;;7.30;70.80;;;;;;5112694;28;20653;-66
2021/11/02 01:44:04;;;;;;;58.38;2.78;;;7.30;71.20;;;;;;5113234;28;20214;-66
2021/11/02 01:46:34;;;;;;;57.95;2.65;;;7.30;71.40;;;;;;5112827;28;20213;-65
2021/11/02 01:49:03;;;;;;;58.27;2.70;;;7.30;71.60;;;;;;5112881;28;20207;-66
2021/11/02 01:51:32;;;;;;;58.47;2.70;;;7.40;71.80;;;;;;5112658;28;20463;-66
2021/11/02 01:54:00;;;;;;;58.40;2.75;;;7.40;72.30;;;;;;5112601;28;20295;-66
2021/11/02 01:56:28;;;;;;;58.30;2.70;;;7.40;72.40;;;;;;5112156;28;20210;-66
2021/11/02 01:58:56;;;;;;;58.47;2.67;;;7.40;72.60;;;;;;5112781;28;20536;-66
2021/11/02 02:01:33;;;;;;;58.13;2.70;;;7.40;72.90;;;;;;5112670;28;20223;-65
2021/11/02 02:04:11;;;;;;;58.20;2.70;;;7.50;73.00;;;;;;5112677;28;20453;-65
2021/11/02 02:06:45;;;;;;;58.35;2.85;;;7.50;73.40;;;;;;5112001;28;20534;-65
2021/11/02 02:09:18;;;;;;;58.25;2.80;;;7.50;73.60;;;;;;5112492;28;20208;-66
2021/11/02 02:11:53;;;;;;;58.40;2.80;;;7.50;74.10;;;;;;5112646;28;20240;-66
2021/11/02 02:14:28;;;;;;;59.53;3.37;;;7.60;74.10;;;;;;5110814;28;20209;-65
2021/11/02 02:16:56;;;;;;;58.07;2.67;;;7.60;74.70;;;;;;5112075;28;20996;-66
2021/11/02 02:19:42;;;;;;;58.37;2.70;;;7.60;74.40;;;;;;5112375;28;20445;-66
2021/11/02 02:22:27;;;;;;;58.17;2.80;;;7.50;74.60;;;;;;5112374;28;20478;-66
2021/11/02 02:25:07;;;;;;;58.20;2.77;;;7.60;75.30;;;;;;5112173;28;20482;-66
2021/11/02 02:27:45;;;;;;;58.03;2.80;;;7.60;75.20;;;;;;5112031;28;20510;-66
2021/11/02 02:30:17;;;;;;;58.50;2.70;;;7.60;75.80;;;;;;5112237;28;20500;-66
2021/11/02 02:32:48;;;;;;;58.30;2.75;;;7.60;75.50;;;;;;5112165;28;20290;-66
2021/11/02 02:35:18;;;;;;;58.28;2.80;;;7.60;76.20;;;;;;5112013;28;20240;-66
2021/11/02 02:37:47;;;;;;;58.17;2.63;;;7.60;76.30;;;;;;5112111;28;20200;-66
2021/11/02 02:40:15;;;;;;;58.38;2.80;;;7.60;76.10;;;;;;5112214;28;20559;-66
2021/11/02 02:42:45;;;;;;;58.67;2.90;;;7.60;76.20;;;;;;5112241;28;20236;-66
2021/11/02 02:45:15;;;;;;;58.08;2.90;;;7.60;76.40;;;;;;5111960;28;20217;-66
2021/11/02 02:47:43;;;;;;;58.37;2.70;;;7.60;77.00;;;;;;5113155;28;20314;-66
2021/11/02 02:50:11;;;;;;;58.28;2.78;;;7.60;77.20;;;;;;5115956;28;20999;-66
2021/11/02 02:52:41;;;;;;;58.13;2.83;;;7.60;77.20;;;;;;5116313;28;20211;-66
2021/11/02 02:55:11;;;;;;;58.27;3.00;;;7.60;77.40;;;;;;5116026;28;20541;-66
2021/11/02 02:57:39;;;;;;;58.35;2.83;;;7.60;76.90;;;;;;5115801;28;20958;-65
2021/11/02 03:00:08;;;;;;;58.23;2.77;;;7.60;76.90;;;;;;5115828;28;20232;-66
2021/11/02 03:02:37;;;;;;;58.17;2.80;;;7.60;77.00;;;;;;5116216;28;20531;-65
2021/11/02 03:05:07;;;;;;;58.17;2.77;;;7.50;77.00;;;;;;5115778;28;20673;-66
2021/11/02 03:07:35;;;;;;;58.17;2.70;;;7.50;77.60;;;;;;5115599;28;20477;-66
2021/11/02 03:10:02;;;;;;;58.03;2.80;;;7.50;77.70;;;;;;5115839;28;20472;-66
2021/11/02 03:12:31;;;;;;;58.33;2.80;;;7.50;77.70;;;;;;5115675;28;20481;-66
2021/11/02 03:15:12;;;;;;;58.17;2.80;;;7.50;77.70;;;;;;5115903;28;20542;-66
2021/11/02 03:17:49;;;;;;;58.40;2.70;;;7.50;77.70;;;;;;5115425;28;20201;-66
2021/11/02 03:20:51;;;;;;;58.50;2.80;;;7.50;77.70;;;;;;5115591;28;20236;-66
2021/11/02 03:48:29;;;;;;;58.30;2.70;;;7.50;78.10;;;;;;5115141;28;21066;-65
2021/11/02 03:51:06;;;;;;;59.10;3.10;;;7.50;78.40;;;;;;5114989;28;20230;-65
2021/11/02 03:56:33;;;;;;;58.38;2.80;;;7.60;78.90;;;;;;5114607;28;20199;-65
2021/11/02 03:59:27;;;;;;;58.58;2.70;;;7.60;79.00;;;;;;5114659;28;20211;-66
2021/11/02 04:02:12;;;;;;;58.30;2.70;;;7.70;79.10;;;;;;5115004;27;20204;-65
2021/11/02 05:06:46;;;;;;;58.25;2.70;;;6.90;50.50;;;;;;5125222;27;20206;-65
2021/11/02 05:07:16;;;;;;;58.17;2.70;;;6.70;48.00;;;;;;5150048;27;20220;-65
2021/11/02 05:10:06;;;;;;;61.10;3.42;;;6.60;47.10;;;;;;5150430;27;20230;-65
2021/11/02 05:13:18;;;;;;;58.40;2.70;;;6.50;46.10;;;;;;5150191;27;20202;-65
2021/11/02 05:57:21;;;;;;;58.25;2.60;;;5.40;31.70;;;;;;5135169;27;20198;-65
2021/11/02 05:59:53;;;;;;;58.35;2.72;;;5.40;32.70;;;;;;5135674;27;20669;-65
2021/11/02 06:02:41;;;;;;;58.55;2.72;;;5.40;33.80;;;;;;5135646;27;20230;-65
2021/11/02 06:08:08;;;;;;;58.47;2.63;;;5.30;33.30;;;;;;5134531;27;20194;-65
2021/11/02 06:11:00;;;;;;;58.50;2.58;;;5.20;32.80;;;;;;5135449;27;20230;-65
2021/11/02 06:27:55;;;;;;;58.47;2.65;;;5.10;33.80;;;;;;5134876;27;20229;-65
2021/11/02 06:30:27;;;;;;;58.30;2.67;;;5.10;34.70;;;;;;5134830;27;20222;-65
2021/11/02 06:33:05;;;;;;;58.47;2.83;;;5.10;34.60;;;;;;5134990;27;20309;-65
2021/11/02 06:35:36;;;;;;;58.45;2.90;;;5.00;34.80;;;;;;5134387;27;20329;-65
2021/11/02 06:38:29;;;;;;;58.55;2.80;;;5.10;36.30;;;;;;5134893;27;20242;-65
2021/11/02 06:52:34;;;;;;;58.35;2.90;;;5.20;49.00;;;;;;5092439;27;20199;-65
2021/11/02 06:55:24;;;;;;;58.47;2.63;;;5.20;49.60;;;;;;5134450;27;20258;-65
2021/11/02 06:58:19;;;;;;;58.38;2.70;;;5.20;49.90;;;;;;5133673;27;20209;-65
2021/11/02 07:18:02;;;;;;;58.10;2.63;;;5.50;58.30;;;;;;5090787;28;20228;-65
2021/11/02 07:20:37;;;;;;;58.15;2.83;;;5.60;60.10;;;;;;5090571;28;20220;-65
2021/11/02 07:23:18;;;;;;;58.25;2.83;;;5.70;60.50;;;;;;5114296;27;20238;-65
2021/11/02 07:25:52;;;;;;;58.17;2.63;;;5.80;61.50;;;;;;5133763;27;20289;-65
2021/11/02 07:28:36;;;;;;;58.17;2.90;;;6.00;62.60;;;;;;5133814;27;20253;-65
2021/11/02 08:47:02;;;;;;;57.87;2.50;;;9.60;26.00;;;;;;5132410;28;20825;-65
2021/11/02 08:49:29;;;;;;;58.13;2.70;;;9.90;4.20;;;;;;5132592;27;20446;-65
2021/11/02 08:51:57;;;;;;;58.07;2.67;;;10.20;1.00;;;;;;5132667;27;20454;-65
2021/11/02 08:54:24;;;;;;;58.07;2.90;;;10.40;1.00;;;;;;5132495;27;20847;-65
2021/11/02 08:56:53;;;;;;;58.10;2.70;;;10.40;1.00;;;;;;5132234;27;20446;-65
2021/11/02 08:59:20;;;;;;;58.10;2.90;;;10.40;1.00;;;;;;5132663;27;20448;-65
2021/11/02 09:01:50;;;;;;;58.27;2.83;;;10.40;1.00;;;;;;5132615;27;20445;-65
2021/11/02 09:04:20;;;;;;;58.27;2.80;;;10.40;1.00;;;;;;5132482;27;20538;-65
2021/11/02 09:06:51;;;;;;;58.03;2.70;;;10.30;1.00;;;;;;5132299;27;20468;-65
2021/11/02 09:09:19;;;;;;;58.17;2.73;;;10.30;1.00;;;;;;5132394;27;20932;-65
2021/11/02 09:11:46;;;;;;;58.27;2.73;;;10.40;1.00;;;;;;5132566;27;20443;-65
2021/11/02 09:14:17;;;;;;;58.23;2.80;;;10.30;1.00;;;;;;5132355;27;20967;-65
2021/11/02 09:16:48;;;;;;;57.73;2.70;;;10.20;1.00;;;;;;5132190;27;20812;-65
2021/11/02 09:19:15;;;;;;;58.13;2.70;;;10.10;1.00;;;;;;5132320;27;20447;-65
2021/11/02 09:21:44;;;;;;;58.27;2.77;;;10.00;1.00;;;;;;5134799;27;20448;-65
2021/11/02 09:24:11;;;;;;;58.10;2.80;;;10.00;1.00;;;;;;5136420;27;20451;-65
2021/11/02 09:26:41;;;;;;;58.13;2.70;;;9.90;1.00;;;;;;5135901;27;20534;-65
2021/11/02 09:29:09;;;;;;;58.40;2.70;;;9.80;1.00;;;;;;5136166;27;20443;-65
2021/11/02 09:31:37;;;;;;;58.90;2.90;;;9.80;1.00;;;;;;5135973;27;20476;-64
2021/11/02 09:34:04;;;;;;;58.37;3.00;;;9.70;1.00;;;;;;5136164;27;20887;-65
2021/11/02 09:36:40;;;;;;;58.57;3.00;;;9.70;1.00;;;;;;5135841;27;20487;-66
2021/11/02 09:39:12;;;;;;;58.27;2.83;;;9.70;1.00;;;;;;5136164;27;20446;-65
2021/11/02 09:42:13;;;;;;;58.27;2.80;;;9.60;1.00;;;;;;5135942;27;20469;-66
2021/11/02 09:45:08;;;;;;;58.30;2.70;;;9.50;1.00;;;;;;5135998;27;20442;-65
2021/11/02 09:47:59;;;;;;;58.37;2.70;;;9.20;1.00;;;;;;5135542;27;21033;-65
2021/11/02 09:50:57;;;;;;;58.13;2.90;;;9.00;1.00;;;;;;5135725;27;20476;-65
2021/11/02 09:54:08;;;;;;;58.27;2.90;;;8.90;1.00;;;;;;5135887;27;20445;-65
2021/11/02 09:57:00;;;;;;;57.97;2.90;;;8.80;1.00;;;;;;5133062;27;20480;-65
2021/11/02 09:59:53;;;;;;;58.27;3.10;;;8.80;1.00;;;;;;5135492;27;20493;-65
2021/11/02 10:02:53;;;;;;;58.27;3.00;;;8.80;1.00;;;;;;5135656;27;20455;-65
2021/11/02 10:05:38;;;;;;;58.17;2.87;;;8.90;1.00;;;;;;5135076;27;20455;-65
2021/11/02 10:08:22;;;;;;;58.28;2.92;;;8.90;1.00;;;;;;5134022;27;20506;-65
2021/11/02 10:11:00;;;;;;;58.17;3.00;;;8.90;1.00;;;;;;5135132;27;20232;-65
2021/11/02 10:13:40;;;;;;;58.17;2.80;;;9.00;1.00;;;;;;5135213;27;20597;-65
2021/11/02 10:16:24;;;;;;;58.30;2.70;;;9.10;1.00;;;;;;5134751;27;20529;-65
2021/11/02 10:19:23;;;;;;;58.13;2.70;;;9.20;3.90;;;;;;5133884;27;20446;-65
2021/11/02 10:22:18;;;;;;;58.13;2.70;;;9.40;9.30;;;;;;5113275;27;20861;-65
2021/11/02 10:25:05;;;;;;;58.30;2.77;;;9.50;4.40;;;;;;5134977;27;21007;-65
2021/11/02 10:28:16;;;;;;;58.47;2.80;;;9.50;8.90;;;;;;5134818;27;20954;-65
2021/11/02 10:30:55;;;;;;;58.07;2.70;;;9.60;12.60;;;;;;5134985;27;20619;-65
2021/11/02 10:33:29;;;;;;;57.97;2.80;;;9.60;6.80;;;;;;5134937;27;20439;-65
2021/11/02 10:36:19;;;;;;;58.23;2.80;;;9.60;1.00;;;;;;5134566;27;20574;-65
2021/11/02 10:39:03;;;;;;;58.07;2.63;;;9.50;1.00;;;;;;5135091;27;20522;-65
2021/11/02 10:41:39;;;;;;;58.17;2.83;;;9.40;1.00;;;;;;5134612;27;20469;-64
2021/11/02 10:44:28;;;;;;;58.07;2.80;;;9.20;1.00;;;;;;5134644;27;20450;-65
2021/11/02 10:47:04;;;;;;;57.97;2.80;;;9.10;1.00;;;;;;5134206;27;20669;-65
2021/11/02 10:49:49;;;;;;;58.50;3.20;;;9.10;1.00;;;;;;5134542;27;20521;-65
2021/11/02 10:52:23;;;;;;;58.10;2.70;;;9.10;1.00;;;;;;5134684;27;20927;-65
2021/11/02 10:54:58;;;;;;;58.27;2.77;;;9.10;1.00;;;;;;5134335;27;20532;-65
2021/11/02 10:57:39;;;;;;;58.00;2.80;;;9.10;1.80;;;;;;5134162;27;21011;-65
2021/11/02 11:00:08;;;;;;;58.07;2.67;;;9.10;3.70;;;;;;5134569;27;20734;-65
2021/11/02 11:02:38;;;;;;;58.37;2.70;;;9.00;5.90;;;;;;5134429;27;20450;-65
2021/11/02 11:05:07;;;;;;;58.23;2.77;;;9.10;5.80;;;;;;5134291;27;20439;-64
2021/11/02 11:07:37;;;;;;;58.03;2.83;;;9.00;7.00;;;;;;5133910;27;20951;-65
2021/11/02 11:10:05;;;;;;;58.13;2.60;;;9.00;9.60;;;;;;5134451;27;20499;-65
2021/11/02 11:12:34;;;;;;;58.17;2.70;;;9.00;10.00;;;;;;5134138;27;20456;-65
2021/11/02 11:15:05;;;;;;;57.97;2.90;;;9.00;8.80;;;;;;5134094;27;20488;-65
2021/11/02 11:17:33;;;;;;;58.30;2.60;;;9.00;9.60;;;;;;5133783;27;20453;-65
2021/11/02 11:20:11;;;;;;;58.27;2.70;;;9.10;10.10;;;;;;5133880;27;20470;-65
2021/11/02 11:22:40;;;;;;;57.97;2.73;;;9.10;11.00;;;;;;5134227;27;20454;-65
2021/11/02 11:25:12;;;;;;;57.87;2.60;;;9.20;11.80;;;;;;5133883;27;20442;-65
2021/11/02 11:27:46;;;;;;;58.13;2.70;;;9.30;12.20;;;;;;5133572;27;20536;-65
2021/11/02 11:30:15;;;;;;;58.07;2.70;;;9.30;13.00;;;;;;5133852;27;20515;-65
2021/11/02 11:32:43;;;;;;;58.17;2.90;;;9.40;13.90;;;;;;5133952;27;20450;-65
2021/11/02 11:35:11;;;;;;;58.03;2.77;;;9.50;14.50;;;;;;5133536;27;20482;-65
2021/11/02 11:37:41;;;;;;;58.00;2.70;;;9.50;17.80;;;;;;5133550;27;20534;-65
2021/11/02 11:40:10;;;;;;;58.03;2.70;;;9.60;17.60;;;;;;5133617;27;20467;-66
2021/11/02 11:42:39;;;;;;;58.20;3.10;;;9.70;19.50;;;;;;5133466;27;20444;-65
2021/11/02 11:45:10;;;;;;;58.17;2.70;;;9.80;22.40;;;;;;5132824;27;21011;-65
2021/11/02 11:47:37;;;;;;;58.27;2.70;;;10.00;26.30;;;;;;5133449;27;20530;-64
2021/11/02 11:50:20;;;;;;;58.07;2.50;;;10.20;34.40;;;;;;5133298;27;20463;-65
2021/11/02 11:52:48;;;;;;;58.03;2.70;;;10.50;42.30;;;;;;5133461;27;20970;-65
2021/11/02 11:55:22;;;;;;;58.13;2.60;;;10.70;56.40;;;;;;5133248;27;20501;-65
2021/11/02 11:58:12;;;;;;;57.87;3.00;;;10.90;61.20;;;;;;5133450;27;20443;-66
2021/11/02 12:00:40;;;;;;;58.07;3.00;;;11.10;65.10;;;;;;5133321;27;20521;-66
2021/11/02 12:03:17;;;;;;;58.07;2.80;;;11.30;67.90;;;;;;5133257;27;20443;-66
2021/11/02 12:05:47;;;;;;;58.40;2.70;;;11.30;68.20;;;;;;5132873;27;20856;-66
2021/11/02 12:08:22;;;;;;;58.07;2.60;;;11.30;66.70;;;;;;5133310;27;20467;-66
2021/11/02 12:10:52;;;;;;;58.03;2.70;;;11.20;58.50;;;;;;5132996;27;20500;-66
2021/11/02 12:13:20;;;;;;;58.17;2.90;;;11.20;47.20;;;;;;5133248;27;20570;-66
2021/11/02 12:16:08;;;;;;;58.03;2.90;;;11.10;37.80;;;;;;5132731;27;20921;-66
2021/11/02 12:18:37;;;;;;;58.30;2.70;;;11.00;24.70;;;;;;5132953;27;20448;-66
2021/11/02 12:21:08;;;;;;;58.13;2.60;;;11.00;3.00;;;;;;5133072;27;20460;-66
2021/11/02 12:23:39;;;;;;;58.07;2.70;;;11.00;1.00;;;;;;5132777;27;20531;-66
2021/11/02 12:26:07;;;;;;;58.30;2.70;;;10.80;1.00;;;;;;5132459;27;20493;-66
2021/11/02 12:28:37;;;;;;;58.07;2.60;;;10.70;1.00;;;;;;5132710;27;20540;-66
2021/11/02 12:31:05;;;;;;;57.97;2.73;;;10.60;1.00;;;;;;5132876;27;20874;-66
2021/11/02 12:33:33;;;;;;;58.03;2.60;;;10.40;1.00;;;;;;5132483;27;20448;-65
2021/11/02 12:36:03;;;;;;;58.37;3.00;;;10.30;1.00;;;;;;5132306;27;20566;-66
2021/11/02 12:38:36;;;;;;;58.27;2.70;;;10.10;1.00;;;;;;5132467;27;21045;-66
2021/11/02 12:41:15;;;;;;;57.93;2.80;;;9.90;1.00;;;;;;5132566;27;20473;-66
2021/11/02 12:43:43;;;;;;;58.20;2.73;;;9.80;1.00;;;;;;5132833;27;20446;-66
2021/11/02 12:46:11;;;;;;;58.37;2.90;;;9.80;1.00;;;;;;5132204;27;20444;-66
2021/11/02 12:48:38;;;;;;;58.43;2.90;;;9.90;1.00;;;;;;5132628;27;20479;-66
2021/11/02 12:51:08;;;;;;;58.23;2.73;;;9.90;1.00;;;;;;5132440;27;20467;-66
2021/11/02 12:53:44;;;;;;;58.13;2.83;;;10.00;1.00;;;;;;5132422;27;20444;-66
2021/11/02 12:56:16;;;;;;;58.10;2.80;;;10.00;5.70;;;;;;5133430;27;20555;-66
2021/11/02 12:58:47;;;;;;;58.10;2.70;;;10.10;7.60;;;;;;5136814;27;20442;-66
2021/11/02 13:01:28;;;;;;;58.20;2.70;;;10.30;10.50;;;;;;5136489;27;20483;-66
2021/11/02 13:03:56;;;;;;;58.07;2.70;;;10.50;15.80;;;;;;5136641;27;20457;-66
2021/11/02 13:06:24;;;;;;;58.17;2.80;;;10.60;14.60;;;;;;5136030;27;20526;-66
2021/11/02 13:08:58;;;;;;;58.13;2.90;;;10.80;15.30;;;;;;5136686;27;20447;-66
2021/11/02 13:11:26;;;;;;;58.07;2.80;;;11.00;19.70;;;;;;5136536;27;20908;-66
2021/11/02 13:13:59;;;;;;;58.03;2.80;;;11.30;27.10;;;;;;5136468;27;20830;-66
2021/11/02 13:16:28;;;;;;;58.13;2.70;;;12.30;61.50;;;;;;5135904;27;20560;-65
2021/11/02 13:18:55;;;;;;;58.20;3.00;;;13.80;74.40;;;;;;5136066;27;20448;-66
2021/11/02 13:21:29;;;;;;;58.17;2.93;;;15.90;85.50;;;;;;5136239;27;20460;-65
2021/11/02 13:24:03;;;;;;;57.83;2.77;;;17.50;87.40;;;;;;5136188;27;20445;-66
2021/11/02 13:26:32;;;;;;;58.17;2.70;;;17.30;24.00;;;;;;5135536;27;20473;-66
2021/11/02 13:29:10;;;;;;;58.30;2.50;;;16.10;1.00;;;;;;5136172;27;20551;-65
2021/11/02 13:31:37;;;;;;;58.50;2.67;;;14.70;1.00;;;;;;5135984;27;20972;-66
2021/11/02 13:34:05;;;;;;;58.33;2.90;;;13.70;1.00;;;;;;5135969;27;20547;-66
2021/11/02 13:36:33;;;;;;;57.30;2.47;;;12.90;1.00;;;;;;5135555;27;20480;-65
2021/11/02 13:39:03;;;;;;;57.77;2.53;;;12.20;1.00;;;;;;5135800;27;20535;-65
2021/11/02 13:41:31;;;;;;;58.07;2.50;;;11.40;1.00;;;;;;5135789;27;20464;-65
2021/11/02 13:44:00;;;;;;;58.10;2.60;;;11.00;1.00;;;;;;5135713;27;20542;-65
2021/11/02 13:46:36;;;;;;;58.00;2.50;;;10.80;1.00;;;;;;5135617;27;20444;-65
2021/11/02 13:49:05;;;;;;;58.33;2.50;;;10.60;1.00;;;;;;5135886;27;20471;-65
2021/11/02 13:51:32;;;;;;;58.03;2.70;;;10.50;1.00;;;;;;5135596;27;20552;-65
2021/11/02 13:54:01;;;;;;;58.07;2.60;;;10.40;1.00;;;;;;5135568;27;20480;-65
2021/11/02 13:56:30;;;;;;;57.87;2.57;;;10.30;1.00;;;;;;5135119;27;20483;-65
2021/11/02 13:58:58;;;;;;;58.17;2.60;;;10.30;1.00;;;;;;5135696;27;20447;-65
2021/11/02 14:01:28;;;;;;;58.20;2.70;;;10.30;1.00;;;;;;5135493;27;20571;-65
2021/11/02 14:04:00;;;;;;;58.07;2.60;;;10.40;1.00;;;;;;5135864;27;20502;-65
2021/11/02 14:06:28;;;;;;;57.77;2.70;;;10.50;1.00;;;;;;5134518;27;20796;-65
2021/11/02 14:08:58;;;;;;;58.03;2.57;;;10.60;1.00;;;;;;5135189;27;20444;-65
2021/11/02 14:11:32;;;;;;;58.17;2.60;;;10.70;1.00;;;;;;5135045;27;20504;-65
2021/11/02 14:13:59;;;;;;;57.93;2.40;;;10.60;1.00;;;;;;5135176;27;20543;-65
2021/11/02 14:16:37;;;;;;;57.97;2.47;;;10.60;1.00;;;;;;5134657;27;20855;-65
2021/11/02 14:19:05;;;;;;;58.17;2.57;;;10.60;1.00;;;;;;5134971;27;20447;-65
2021/11/02 14:21:50;;;;;;;58.10;2.80;;;10.70;1.00;;;;;;5134786;27;20464;-65
2021/11/02 14:24:30;;;;;;;58.40;2.60;;;11.50;1.00;;;;;;5134973;27;20445;-65
2021/11/02 14:26:59;;;;;;;57.97;2.70;;;14.30;1.00;;;;;;5134634;27;20447;-65
2021/11/02 14:29:55;;;;;;;58.30;3.00;;;16.20;1.00;;;;;;5134802;27;20531;-65
2021/11/02 14:32:44;;;;;;;57.37;2.60;;;16.80;1.00;;;;;;5135031;27;20445;-65
2021/11/02 14:35:13;;;;;;;57.80;2.57;;;17.00;1.00;;;;;;5134518;27;20965;-65
2021/11/02 14:37:47;;;;;;;57.57;2.40;;;16.60;1.00;;;;;;5134465;27;20572;-65
2021/11/02 14:40:28;;;;;;;58.30;2.80;;;15.30;1.00;;;;;;5134575;27;20458;-65
2021/11/02 14:42:57;;;;;;;57.77;2.53;;;14.00;1.00;;;;;;5134654;27;20446;-65
2021/11/02 14:45:39;;;;;;;57.97;2.50;;;13.30;1.00;;;;;;5134450;27;20451;-65
2021/11/02 14:48:34;;;;;;;58.00;2.70;;;12.80;1.00;;;;;;5134599;27;20440;-65
2021/11/02 14:51:02;;;;;;;57.93;2.40;;;12.30;1.00;;;;;;5134391;27;21010;-65
2021/11/02 14:53:31;;;;;;;58.03;2.53;;;12.00;1.00;;;;;;5134642;27;20540;-65
2021/11/02 14:55:59;;;;;;;57.77;2.50;;;11.70;1.00;;;;;;5134071;27;20903;-65
2021/11/02 14:58:47;;;;;;;57.97;2.60;;;11.40;1.00;;;;;;5134330;27;20494;-65
2021/11/02 15:01:17;;;;;;;57.93;2.50;;;11.20;1.00;;;;;;5134426;27;20468;-65
2021/11/02 15:03:59;;;;;;;57.83;2.43;;;11.10;1.00;;;;;;5134413;27;20543;-65
2021/11/02 15:06:33;;;;;;;57.77;2.60;;;11.10;1.00;;;;;;5133925;27;20443;-65
2021/11/02 15:09:01;;;;;;;57.93;2.40;;;11.10;1.00;;;;;;5134201;27;20973;-65
2021/11/02 15:11:30;;;;;;;58.03;2.40;;;11.30;1.00;;;;;;5133879;27;20499;-65
2021/11/02 15:14:00;;;;;;;57.73;2.50;;;11.20;1.00;;;;;;5134021;27;20957;-65
2021/11/02 15:16:28;;;;;;;57.87;2.50;;;11.10;1.00;;;;;;5134128;27;20563;-65
2021/11/02 15:19:05;;;;;;;57.87;2.50;;;10.90;1.00;;;;;;5133073;27;20487;-65
2021/11/02 15:21:34;;;;;;;57.87;2.50;;;10.80;1.00;;;;;;5133818;27;20498;-65
2021/11/02 15:24:06;;;;;;;58.20;2.40;;;10.70;1.00;;;;;;5133728;27;20535;-65
2021/11/02 15:26:49;;;;;;;58.07;2.50;;;10.60;1.00;;;;;;5133463;27;20497;-65
2021/11/02 15:29:19;;;;;;;58.13;2.57;;;10.50;1.00;;;;;;5133769;27;21051;-65
2021/11/02 15:32:03;;;;;;;57.97;2.40;;;10.30;1.00;;;;;;5133687;27;20458;-65
2021/11/02 15:34:36;;;;;;;58.20;2.50;;;10.20;1.00;;;;;;5133473;27;20455;-65
2021/11/02 15:37:05;;;;;;;57.97;2.60;;;10.00;1.00;;;;;;5133220;27;20480;-65
2021/11/02 15:39:32;;;;;;;57.87;2.50;;;10.00;1.00;;;;;;5133452;27;20486;-65
2021/11/02 15:41:58;;;;;;;58.00;2.50;;;9.90;1.00;;;;;;5133479;27;20440;-65
2021/11/02 15:44:29;;;;;;;58.03;2.67;;;9.80;1.00;;;;;;5133382;27;20458;-65
2021/11/02 15:46:56;;;;;;;58.20;2.60;;;9.70;1.00;;;;;;5133078;27;20570;-65
2021/11/02 15:49:24;;;;;;;58.13;2.70;;;9.60;1.00;;;;;;5133215;27;20535;-65
2021/11/02 15:51:57;;;;;;;58.27;2.63;;;9.70;1.00;;;;;;5133273;27;20446;-65
2021/11/02 15:54:26;;;;;;;58.40;2.90;;;9.60;1.00;;;;;;5133255;27;20489;-65
2021/11/02 15:56:54;;;;;;;58.20;2.60;;;9.50;1.00;;;;;;5132696;27;20482;-65
2021/11/02 15:59:26;;;;;;;58.10;2.63;;;9.50;1.00;;;;;;5132909;27;20825;-65
2021/11/02 16:01:54;;;;;;;58.07;2.53;;;9.40;1.00;;;;;;5133449;27;20455;-65
2021/11/02 16:04:24;;;;;;;58.07;2.60;;;9.30;1.00;;;;;;5133233;27;20530;-65
2021/11/02 16:07:05;;;;;;;58.07;2.60;;;9.20;1.00;;;;;;5132701;27;20446;-65
2021/11/02 16:09:50;;;;;;;58.03;2.70;;;9.10;1.00;;;;;;5133002;27;20478;-65
2021/11/02 16:12:19;;;;;;;58.00;2.60;;;9.10;1.00;;;;;;5133156;27;20443;-65
2021/11/02 16:14:54;;;;;;;58.00;2.63;;;9.10;1.00;;;;;;5133135;27;20896;-64
2021/11/02 16:17:23;;;;;;;58.20;2.60;;;9.00;1.00;;;;;;5132715;27;20477;-65
2021/11/02 16:19:52;;;;;;;58.03;2.60;;;8.90;1.00;;;;;;5132841;27;20467;-65
2021/11/02 16:22:20;;;;;;;57.87;2.50;;;8.90;1.00;;;;;;5132769;27;20449;-65
2021/11/02 16:25:00;;;;;;;58.30;2.60;;;8.80;1.00;;;;;;5132699;27;20823;-65
2021/11/02 16:27:27;;;;;;;57.93;2.50;;;8.80;1.00;;;;;;5132439;27;20533;-64
2021/11/02 16:29:54;;;;;;;57.97;2.50;;;8.80;1.00;;;;;;5132576;27;20829;-65
2021/11/02 16:32:26;;;;;;;57.97;2.63;;;8.80;1.00;;;;;;5132754;27;20911;-65
2021/11/02 16:34:54;;;;;;;57.93;2.70;;;8.90;1.00;;;;;;5132419;27;20518;-65
2021/11/02 16:37:31;;;;;;;57.83;2.50;;;8.90;1.00;;;;;;5132213;27;20573;-65
2021/11/02 16:40:18;;;;;;;58.07;2.60;;;8.80;1.00;;;;;;5132545;27;20469;-64
2021/11/02 16:42:59;;;;;;;58.10;2.70;;;8.80;1.00;;;;;;5132676;27;20829;-64
2021/11/02 16:45:32;;;;;;;58.03;2.60;;;8.80;1.00;;;;;;5132572;27;20450;-64
2021/11/02 16:48:04;;;;;;;58.23;2.60;;;8.80;1.00;;;;;;5132840;27;20440;-65
2021/11/02 16:50:34;;;;;;;58.07;2.60;;;8.90;1.00;;;;;;5133429;27;20630;-65
2021/11/02 16:53:17;;;;;;;57.87;2.57;;;8.90;1.00;;;;;;5133737;27;20481;-65
2021/11/02 16:55:46;;;;;;;58.03;2.50;;;8.90;1.00;;;;;;5133132;27;20953;-64
2021/11/02 16:58:34;;;;;;;58.07;2.60;;;8.90;1.00;;;;;;5133304;27;20478;-65
2021/11/02 17:01:13;;;;;;;58.00;2.60;;;8.90;1.00;;;;;;5133696;27;21027;-65
2021/11/02 17:03:42;;;;;;;57.83;2.60;;;8.90;1.00;;;;;;5133094;27;20450;-65
2021/11/02 17:06:14;;;;;;;58.03;2.70;;;8.90;1.00;;;;;;5132285;27;20448;-65
2021/11/02 17:09:11;;;;;;;58.07;2.60;;;8.90;1.00;;;;;;5132603;27;20603;-65
2021/11/02 17:11:55;;;;;;;58.47;3.00;;;8.80;1.00;;;;;;5132307;27;20480;-65
2021/11/02 17:14:22;;;;;;;58.20;2.83;;;8.70;1.00;;;;;;5132149;27;20446;-65
2021/11/02 17:16:52;;;;;;;58.07;2.73;;;8.60;1.00;;;;;;5131818;27;20475;-65
2021/11/02 17:19:22;;;;;;;58.37;2.63;;;8.50;1.00;;;;;;5132390;27;20536;-65
2021/11/02 17:21:55;;;;;;;57.97;2.70;;;8.40;1.00;;;;;;5132217;27;20536;-65
2021/11/02 17:24:23;;;;;;;57.97;2.78;;;8.30;1.00;;;;;;5132286;27;20472;-65
2021/11/02 17:26:50;;;;;;;58.38;2.88;;;8.30;1.00;;;;;;5131761;27;20291;-65
2021/11/02 17:29:17;;;;;;;58.13;2.80;;;8.30;1.00;;;;;;5132302;27;20295;-65
2021/11/02 17:31:46;;;;;;;58.33;2.70;;;8.30;1.00;;;;;;5132429;27;20451;-65